Time;durP1;ratioP1;P1;durP2;ratioP2;P2;SDS_P1;SDS_P2;PMS_P1;PMS_P2;Temp;Humidity;BMP_temperature;BMP_pressure;BME280_temperature;BME280_humidity;BME280_pressure;Samples;Min_cycle;Max_cycle;Signal;HPM_P1;HPM_P2
2023/05/21 00:01:08;;;;;;;0.35;0.13;;;;;;;20.34;100.00;101860.94;10430920;28;20408;-79
2023/05/21 00:06:12;;;;;;;0.25;0.25;;;;;;;20.65;100.00;101850.47;10440203;28;20053;-79
2023/05/21 00:11:13;;;;;;;0.30;0.22;;;;;;;20.19;100.00;101857.44;10422762;28;20087;-80
2023/05/21 00:16:18;;;;;;;0.40;0.20;;;;;;;20.59;100.00;101841.72;10439880;28;20045;-80
2023/05/21 00:21:24;;;;;;;0.05;0.05;;;;;;;20.69;100.00;101837.38;10435420;28;20045;-80
2023/05/21 00:26:26;;;;;;;0.25;0.25;;;;;;;20.55;100.00;101836.53;10415048;28;20175;-80
2023/05/21 00:31:31;;;;;;;0.52;0.47;;;;;;;20.40;100.00;101829.53;10448812;28;20041;-80
2023/05/21 00:36:33;;;;;;;0.22;0.13;;;;;;;20.01;100.00;101826.00;10426943;28;20088;-79
2023/05/21 00:41:35;;;;;;;0.50;0.35;;;;;;;20.08;100.00;101817.31;10430191;28;20076;-78
2023/05/21 00:46:38;;;;;;;1.70;0.52;;;;;;;20.11;100.00;101807.72;10430985;28;20037;-78
2023/05/21 00:51:40;;;;;;;0.52;0.38;;;;;;;19.88;100.00;101805.09;10430673;28;20427;-79
2023/05/21 00:56:42;;;;;;;0.35;0.20;;;;;;;20.05;100.00;101802.47;10431502;28;20068;-79
2023/05/21 01:01:44;;;;;;;0.45;0.40;;;;;;;20.15;100.00;101807.72;10429806;28;20052;-78
2023/05/21 01:06:46;;;;;;;0.55;0.30;;;;;;;20.09;100.00;101805.97;10433872;28;20427;-79
2023/05/21 01:11:49;;;;;;;0.40;0.30;;;;;;;20.27;100.00;101806.00;10452467;28;20045;-79
2023/05/21 01:16:52;;;;;;;0.05;0.03;;;;;;;20.35;100.00;101807.72;10446164;28;20052;-78
2023/05/21 01:22:00;;;;;;;0.30;0.20;;;;;;;20.22;100.00;101799.88;10452777;28;20053;-79
2023/05/21 01:27:05;;;;;;;0.73;0.60;;;;;;;19.97;100.00;101794.66;10422549;28;20068;-79
2023/05/21 01:32:22;;;;;;;0.40;0.10;;;;;;;19.77;100.00;101796.34;10437784;28;20045;-79
2023/05/21 01:37:40;;;;;;;0.73;0.57;;;;;;;19.97;100.00;101788.53;10439050;28;20048;-80
2023/05/21 01:42:44;;;;;;;0.20;0.20;;;;;;;19.69;100.00;101788.47;10438682;28;20059;-79
2023/05/21 01:47:51;;;;;;;0.20;0.00;;;;;;;19.85;100.00;101785.91;10435773;28;20045;-79
2023/05/21 01:52:55;;;;;;;0.40;0.40;;;;;;;19.72;100.00;101785.88;10433774;28;20187;-79
2023/05/21 01:57:58;;;;;;;0.50;0.20;;;;;;;19.37;100.00;101786.63;10435642;28;20052;-80
2023/05/21 02:03:02;;;;;;;0.45;0.15;;;;;;;19.52;100.00;101783.19;10413945;28;20057;-79
2023/05/21 02:08:07;;;;;;;0.05;0.03;;;;;;;19.14;100.00;101783.94;10441393;28;20068;-78
2023/05/21 02:13:08;;;;;;;0.00;0.00;;;;;;;19.10;100.00;101782.19;10435157;28;20056;-79
2023/05/21 02:18:15;;;;;;;0.10;0.10;;;;;;;19.26;100.00;101778.75;10432487;28;20048;-79
2023/05/21 02:23:17;;;;;;;0.20;0.20;;;;;;;19.06;100.00;101769.97;10417743;28;20053;-79
2023/05/21 02:28:20;;;;;;;1.48;0.30;;;;;;;19.31;100.00;101766.59;10435002;28;20122;-79
2023/05/21 02:33:21;;;;;;;0.28;0.28;;;;;;;19.15;100.00;101775.22;10434397;28;20049;-79
2023/05/21 02:38:26;;;;;;;0.45;0.25;;;;;;;19.14;100.00;101766.50;10459217;28;20381;-78
2023/05/21 02:43:27;;;;;;;0.10;0.10;;;;;;;19.24;100.00;101769.16;10438560;28;20403;-77
2023/05/21 02:48:29;;;;;;;0.30;0.30;;;;;;;19.23;100.00;101770.91;10434715;28;20041;-77
2023/05/21 02:53:31;;;;;;;0.65;0.28;;;;;;;18.90;100.00;101769.84;10435216;28;20041;-78
2023/05/21 02:58:33;;;;;;;0.52;0.38;;;;;;;18.57;100.00;101771.41;10437706;28;20499;-77
2023/05/21 03:03:34;;;;;;;0.03;0.03;;;;;;;18.76;100.00;101763.69;10435036;28;20053;-76
2023/05/21 03:08:36;;;;;;;0.00;0.00;;;;;;;18.65;100.00;101761.00;10433126;28;20044;-76
2023/05/21 03:13:38;;;;;;;0.17;0.17;;;;;;;18.37;100.00;101761.69;10416859;28;20063;-77
2023/05/21 03:18:40;;;;;;;0.65;0.40;;;;;;;18.41;100.00;101753.91;10447276;28;20044;-77
2023/05/21 03:23:42;;;;;;;0.20;0.20;;;;;;;18.42;100.00;101740.88;10436140;28;20045;-78
2023/05/21 03:28:43;;;;;;;0.17;0.17;;;;;;;18.36;100.00;101752.13;10432538;28;20128;-77
2023/05/21 03:33:46;;;;;;;0.68;0.55;;;;;;;18.39;100.00;101749.53;10432774;28;20655;-78
2023/05/21 03:38:56;;;;;;;0.20;0.20;;;;;;;18.29;100.00;101755.56;10429515;28;20106;-78
2023/05/21 03:43:57;;;;;;;0.00;0.00;;;;;;;18.33;100.00;101759.06;10451451;28;20052;-78
2023/05/21 03:49:04;;;;;;;0.40;0.25;;;;;;;18.14;100.00;101751.09;10435208;28;20055;-78
2023/05/21 03:54:08;;;;;;;0.40;0.40;;;;;;;18.11;100.00;101751.06;10439931;28;20053;-79
2023/05/21 03:59:13;;;;;;;0.55;0.20;;;;;;;17.90;100.00;101750.00;10431750;28;20045;-79
2023/05/21 04:04:16;;;;;;;0.55;0.40;;;;;;;18.08;100.00;101749.31;10419070;28;20052;-79
2023/05/21 04:09:18;;;;;;;0.30;0.30;;;;;;;17.95;100.00;101754.38;10442007;28;20080;-78
2023/05/21 04:14:20;;;;;;;0.63;0.40;;;;;;;18.08;100.00;101757.13;10439932;28;20473;-79
2023/05/21 04:19:21;;;;;;;0.68;0.52;;;;;;;18.48;100.00;101767.00;10425408;28;20500;-78
2023/05/21 04:24:24;;;;;;;0.43;0.22;;;;;;;18.37;100.00;101771.28;10439481;28;20343;-78
2023/05/21 04:29:56;;;;;;;0.70;0.52;;;;;;;18.22;100.00;101764.19;10424905;28;20053;-79
2023/05/21 04:34:59;;;;;;;0.30;0.30;;;;;;;18.31;100.00;101772.09;10431457;28;20049;-78
2023/05/21 04:40:03;;;;;;;0.43;0.30;;;;;;;18.44;100.00;101777.38;10424476;28;20563;-78
2023/05/21 04:45:05;;;;;;;1.55;0.55;;;;;;;18.18;100.00;101770.25;10428397;28;20098;-80
2023/05/21 04:50:10;;;;;;;0.40;0.35;;;;;;;18.64;100.00;101767.97;10443028;28;20073;-78
2023/05/21 04:55:12;;;;;;;0.43;0.30;;;;;;;18.65;100.00;101769.69;10423728;28;20121;-78
2023/05/21 05:00:15;;;;;;;0.65;0.35;;;;;;;18.28;100.00;101773.81;10437534;28;20069;-79
2023/05/21 05:05:18;;;;;;;1.48;0.60;;;;;;;18.42;100.00;101766.09;10438238;28;20408;-78
2023/05/21 05:10:22;;;;;;;0.15;0.15;;;;;;;18.79;100.00;101761.97;10431990;28;20103;-78
2023/05/21 05:15:25;;;;;;;1.13;0.82;;;;;;;18.65;100.00;101759.25;10438701;28;20049;-78
2023/05/21 05:20:27;;;;;;;0.43;0.43;;;;;;;18.65;100.00;101755.78;10434082;28;20464;-79
2023/05/21 05:25:29;;;;;;;1.08;0.47;;;;;;;18.73;100.00;101748.88;10454960;28;20079;-78
2023/05/21 05:30:33;;;;;;;1.05;0.60;;;;;;;18.70;100.00;101756.69;10442716;28;20049;-78
2023/05/21 05:35:45;;;;;;;0.70;0.40;;;;;;;18.73;100.00;101750.63;10444379;28;20492;-79
2023/05/21 05:40:47;;;;;;;0.75;0.65;;;;;;;18.77;100.00;101757.59;10437767;28;20399;-79
2023/05/21 05:45:48;;;;;;;0.60;0.32;;;;;;;19.13;100.00;101756.94;10439156;28;20076;-78
2023/05/21 05:50:53;;;;;;;0.50;0.50;;;;;;;19.31;100.00;101739.56;10440307;28;20059;-80
2023/05/21 05:55:56;;;;;;;1.60;0.55;;;;;;;18.96;100.00;101749.03;10420827;28;20045;-79
2023/05/21 06:00:57;;;;;;;0.30;0.30;;;;;;;18.94;100.00;101753.38;10438642;28;20051;-79
2023/05/21 06:06:01;;;;;;;1.00;0.57;;;;;;;19.39;100.00;101755.28;10436239;28;20053;-79
2023/05/21 06:11:04;;;;;;;1.23;0.88;;;;;;;19.05;100.00;101753.44;10418543;28;20518;-78
2023/05/21 06:16:06;;;;;;;0.47;0.43;;;;;;;19.25;100.00;101753.47;10443534;28;20051;-78
2023/05/21 06:21:08;;;;;;;0.43;0.08;;;;;;;19.70;100.00;101747.50;10423471;28;20059;-77
2023/05/21 06:26:09;;;;;;;0.93;0.55;;;;;;;19.71;100.00;101747.50;10438387;28;20131;-78
2023/05/21 06:31:12;;;;;;;0.60;0.60;;;;;;;19.87;100.00;101745.81;10438159;28;20404;-78
2023/05/21 06:36:15;;;;;;;0.75;0.75;;;;;;;20.18;100.00;101748.44;10418724;28;20523;-79
2023/05/21 06:41:18;;;;;;;1.08;0.70;;;;;;;20.09;100.00;101745.81;10433475;28;20048;-79
2023/05/21 06:46:24;;;;;;;0.25;0.13;;;;;;;20.84;100.00;101744.81;10418509;28;20053;-77
2023/05/21 06:51:26;;;;;;;0.68;0.50;;;;;;;21.30;100.00;101740.25;10419754;28;20493;-79
2023/05/21 06:56:28;;;;;;;1.38;0.90;;;;;;;21.05;100.00;101743.00;10438472;28;20072;-78
2023/05/21 07:01:31;;;;;;;0.60;0.55;;;;;;;21.31;100.00;101742.88;10437284;28;20042;-78
2023/05/21 07:06:34;;;;;;;0.40;0.30;;;;;;;21.29;100.00;101739.41;10417386;28;20049;-78
2023/05/21 07:11:37;;;;;;;1.27;0.90;;;;;;;20.56;100.00;101736.13;10416739;28;20048;-78
2023/05/21 07:16:40;;;;;;;1.38;1.25;;;;;;;21.17;100.00;101735.09;10433289;28;20053;-80
2023/05/21 07:21:42;;;;;;;1.30;0.70;;;;;;;21.46;100.00;101731.44;10418643;28;20045;-78
2023/05/21 07:26:44;;;;;;;0.75;0.50;;;;;;;21.34;100.00;101723.63;10433670;28;20033;-79
2023/05/21 07:31:47;;;;;;;0.47;0.43;;;;;;;21.00;100.00;101731.69;10424577;28;20049;-77
2023/05/21 07:36:48;;;;;;;2.30;1.25;;;;;;;21.86;100.00;101720.66;10425445;28;20037;-76
2023/05/21 07:41:50;;;;;;;1.63;0.60;;;;;;;21.69;100.00;101720.81;10429769;28;20075;-79
2023/05/21 07:46:52;;;;;;;1.65;0.93;;;;;;;21.81;100.00;101721.63;10427271;28;20362;-78
2023/05/21 07:51:54;;;;;;;2.88;1.33;;;;;;;21.96;100.00;101716.25;10422899;28;20053;-77
2023/05/21 07:56:55;;;;;;;0.88;0.80;;;;;;;21.90;100.00;101715.41;10432567;28;20416;-78
2023/05/21 08:02:20;;;;;;;1.20;0.88;;;;;;;21.39;100.00;101720.09;10436627;28;20394;-80
2023/05/21 08:07:22;;;;;;;0.55;0.40;;;;;;;21.44;100.00;101712.22;10449757;28;20045;-80
2023/05/21 08:12:24;;;;;;;7.30;1.42;;;;;;;22.79;100.00;101700.50;10415978;28;20090;-79
2023/05/21 08:17:27;;;;;;;0.68;0.65;;;;;;;21.89;100.00;101701.44;10430808;28;20411;-80
2023/05/21 08:22:29;;;;;;;1.50;0.80;;;;;;;21.79;100.00;101707.63;10429252;28;20086;-81
2023/05/21 08:27:31;;;;;;;2.80;1.25;;;;;;;22.29;100.00;101702.81;10433807;28;20049;-78
2023/05/21 08:32:33;;;;;;;1.40;0.85;;;;;;;22.56;100.00;101711.28;10418133;28;20107;-79
2023/05/21 08:37:35;;;;;;;1.23;0.55;;;;;;;22.92;100.00;101709.09;10436277;28;20171;-79
2023/05/21 08:42:48;;;;;;;0.93;0.60;;;;;;;24.02;100.00;101695.22;10428129;28;20041;-80
2023/05/21 08:48:11;;;;;;;0.73;0.50;;;;;;;23.89;100.00;101694.53;10414490;28;20033;-81
2023/05/21 08:53:15;;;;;;;0.87;0.60;;;;;;;23.99;100.00;101695.28;10414972;28;20049;-76
2023/05/21 08:58:32;;;;;;;0.98;0.68;;;;;;;24.55;100.00;101694.22;10412867;28;20564;-77
2023/05/21 09:03:39;;;;;;;1.98;1.20;;;;;;;24.26;100.00;101698.28;10412606;28;20091;-79
2023/05/21 09:08:52;;;;;;;1.08;0.55;;;;;;;25.05;100.00;101694.09;10426909;28;20045;-79
2023/05/21 09:14:10;;;;;;;2.85;0.70;;;;;;;24.98;100.00;101681.94;10435664;28;20048;-78
2023/05/21 09:19:36;;;;;;;0.70;0.70;;;;;;;24.93;100.00;101689.94;10423300;28;20045;-79
2023/05/21 09:24:38;;;;;;;0.98;0.73;;;;;;;24.22;100.00;101683.47;10446731;28;20077;-78
2023/05/21 09:29:41;;;;;;;1.83;1.05;;;;;;;25.01;100.00;101677.47;10446839;28;20107;-78
2023/05/21 09:34:42;;;;;;;0.93;0.85;;;;;;;25.44;98.65;101674.75;10436166;28;20053;-79
2023/05/21 09:39:46;;;;;;;0.50;0.50;;;;;;;26.27;100.00;101669.13;10421533;28;20098;-78
2023/05/21 09:44:48;;;;;;;3.70;1.02;;;;;;;27.38;94.48;101662.28;10405514;28;20066;-77
2023/05/21 09:49:50;;;;;;;1.75;0.90;;;;;;;25.55;100.00;101670.09;10423804;28;20037;-81
2023/05/21 09:54:52;;;;;;;1.08;0.85;;;;;;;27.76;94.22;101661.97;10436549;28;20041;-78
2023/05/21 09:59:54;;;;;;;2.10;1.02;;;;;;;26.69;99.19;101662.66;10419801;28;20041;-78
2023/05/21 10:04:56;;;;;;;1.98;0.80;;;;;;;26.38;96.08;101655.63;10429627;28;20041;-78
2023/05/21 10:10:00;;;;;;;1.50;0.80;;;;;;;27.07;93.12;101640.34;10416972;28;20046;-80
2023/05/21 10:15:03;;;;;;;1.08;0.75;;;;;;;25.93;97.61;101647.13;10423604;28;20408;-81
2023/05/21 10:20:07;;;;;;;2.28;1.67;;;;;;;26.85;95.84;101640.16;10428174;28;20048;-80
2023/05/21 10:25:09;;;;;;;3.45;1.77;;;;;;;26.66;95.24;101633.66;10446636;28;20045;-79
2023/05/21 10:30:11;;;;;;;1.25;0.65;;;;;;;26.94;93.50;101627.56;10405124;28;20060;-79
2023/05/21 10:35:15;;;;;;;1.35;0.95;;;;;;;27.09;92.22;101616.50;10433916;28;20052;-79
2023/05/21 10:40:17;;;;;;;1.15;0.82;;;;;;;27.14;96.76;101624.28;10429078;28;20045;-81
2023/05/21 10:46:04;;;;;;;1.90;0.90;;;;;;;26.79;92.78;101626.28;10412192;28;20052;-78
2023/05/21 10:58:14;;;;;;;1.05;0.80;;;;;;;27.74;93.08;101611.69;10440166;28;20037;-76
2023/05/21 11:03:16;;;;;;;0.70;0.57;;;;;;;27.67;91.17;101618.13;10441982;28;20056;-78
2023/05/21 11:08:24;;;;;;;1.85;0.90;;;;;;;28.01;90.99;101619.59;10436149;28;20730;-78
2023/05/21 11:13:27;;;;;;;0.98;0.88;;;;;;;28.64;94.00;101604.00;10433551;28;20049;-78
2023/05/21 11:18:59;;;;;;;3.45;1.75;;;;;;;27.93;94.00;101616.34;10432433;28;20579;-78
2023/05/21 11:24:22;;;;;;;1.55;1.25;;;;;;;27.37;94.16;101608.53;10421149;28;20487;-79
2023/05/21 11:29:41;;;;;;;4.13;0.52;;;;;;;28.24;90.95;101608.16;10467655;28;20078;-78
2023/05/21 11:34:44;;;;;;;2.13;1.27;;;;;;;28.33;91.17;101601.69;10435898;28;20053;-79
2023/05/21 11:39:47;;;;;;;1.05;0.75;;;;;;;28.61;91.99;101592.66;10439258;28;20041;-79
2023/05/21 11:44:49;;;;;;;0.85;0.73;;;;;;;27.11;93.28;101601.44;10432765;28;20049;-80
2023/05/21 11:49:51;;;;;;;1.70;0.85;;;;;;;28.15;91.13;101597.91;10452129;28;20037;-78
2023/05/21 11:54:57;;;;;;;0.55;0.55;;;;;;;27.96;93.14;101592.44;10438326;28;20060;-78
2023/05/21 12:00:01;;;;;;;0.85;0.80;;;;;;;28.67;92.08;101576.50;10433151;28;20044;-78
2023/05/21 12:05:13;;;;;;;2.88;0.85;;;;;;;27.83;96.07;101587.56;10445585;28;20053;-79
2023/05/21 12:10:19;;;;;;;1.10;1.00;;;;;;;28.11;91.42;101583.91;10425839;28;20045;-79
2023/05/21 12:15:24;;;;;;;0.85;0.82;;;;;;;28.02;89.06;101584.25;10414856;28;20053;-79
2023/05/21 12:20:27;;;;;;;0.82;0.55;;;;;;;30.36;85.72;101561.34;10444440;28;20048;-77
2023/05/21 12:25:30;;;;;;;1.60;1.05;;;;;;;27.71;92.63;101586.19;10435492;28;20049;-81
2023/05/21 12:30:32;;;;;;;1.40;0.75;;;;;;;28.11;91.08;101573.31;10439882;28;20049;-81
2023/05/21 12:35:34;;;;;;;1.48;0.93;;;;;;;29.48;93.20;101567.94;10441865;28;20040;-78
2023/05/21 12:40:41;;;;;;;0.93;0.73;;;;;;;30.04;89.83;101561.94;10438521;22;20052;-77
2023/05/21 12:45:43;;;;;;;0.55;0.52;;;;;;;29.04;85.66;101567.09;10442265;28;20051;-78
2023/05/21 12:50:47;;;;;;;2.03;1.65;;;;;;;29.07;89.25;101559.00;10413503;28;20080;-79
2023/05/21 12:55:49;;;;;;;2.25;1.50;;;;;;;29.79;86.11;101555.97;10420467;28;20129;-79
2023/05/21 13:00:53;;;;;;;0.88;0.85;;;;;;;30.28;87.52;101548.41;10447635;28;20048;-78
2023/05/21 13:05:59;;;;;;;1.55;1.20;;;;;;;29.78;91.40;101541.84;10450714;28;20041;-79
2023/05/21 13:11:02;;;;;;;1.38;0.88;;;;;;;29.43;86.58;101555.75;10446913;28;20053;-78
2023/05/21 13:16:04;;;;;;;1.23;1.05;;;;;;;29.90;89.71;101540.41;10456657;28;20519;-78
2023/05/21 13:21:06;;;;;;;1.90;0.82;;;;;;;29.55;85.86;101543.72;10438961;28;20102;-79
2023/05/21 13:26:08;;;;;;;0.57;0.57;;;;;;;28.80;87.61;101523.88;10455373;28;20514;-78
2023/05/21 13:31:10;;;;;;;2.88;1.50;;;;;;;29.23;90.93;101526.50;10455052;28;20136;-79
2023/05/21 13:36:12;;;;;;;1.88;1.20;;;;;;;29.12;89.00;101525.19;10456877;28;20446;-79
2023/05/21 13:41:14;;;;;;;1.08;0.68;;;;;;;29.44;89.84;101515.00;10453312;28;20037;-78
2023/05/21 13:46:15;;;;;;;0.73;0.40;;;;;;;29.09;88.45;101506.72;10455079;28;20049;-78
2023/05/21 13:51:17;;;;;;;0.98;0.52;;;;;;;28.40;90.89;101518.38;10450251;28;20645;-78
2023/05/21 13:56:38;;;;;;;0.90;0.73;;;;;;;28.68;85.52;101513.72;10453317;28;20132;-81
2023/05/21 14:01:40;;;;;;;2.42;1.40;;;;;;;30.22;86.30;101515.03;10446743;28;20141;-77
2023/05/21 14:06:42;;;;;;;0.95;0.70;;;;;;;29.24;84.31;101517.63;10455043;28;20094;-78
2023/05/21 14:11:44;;;;;;;3.65;1.17;;;;;;;28.38;88.51;101512.28;10454638;28;20404;-80
2023/05/21 14:16:46;;;;;;;1.23;0.77;;;;;;;29.10;86.47;101516.41;10454514;28;20508;-79
2023/05/21 14:21:50;;;;;;;2.05;0.70;;;;;;;30.00;85.76;101512.53;10442155;28;20619;-78
2023/05/21 14:26:52;;;;;;;4.97;0.88;;;;;;;30.48;87.76;101512.91;10446182;28;20047;-76
2023/05/21 14:31:53;;;;;;;3.33;1.13;;;;;;;29.93;88.84;101508.44;10450193;28;20056;-76
2023/05/21 14:36:55;;;;;;;0.60;0.60;;;;;;;29.78;89.02;101506.44;10438846;28;20037;-76
2023/05/21 14:41:57;;;;;;;1.60;1.20;;;;;;;30.40;85.02;101499.13;10433047;28;20046;-78
2023/05/21 14:46:58;;;;;;;2.00;1.23;;;;;;;30.19;86.74;101506.34;10430359;28;20060;-77
2023/05/21 14:52:00;;;;;;;2.00;0.65;;;;;;;29.74;87.87;101503.94;10436156;28;20052;-77
2023/05/21 14:57:02;;;;;;;1.73;1.20;;;;;;;30.63;85.54;101503.38;10454159;28;20067;-78
2023/05/21 15:02:03;;;;;;;0.70;0.57;;;;;;;30.48;86.14;101501.44;10454074;28;20045;-78
2023/05/21 15:07:05;;;;;;;0.80;0.63;;;;;;;30.13;85.83;101493.34;10456135;28;20397;-77
2023/05/21 15:12:07;;;;;;;1.92;1.20;;;;;;;29.82;87.71;101492.97;10455055;28;20048;-78
2023/05/21 15:17:08;;;;;;;1.42;0.80;;;;;;;30.04;87.79;101487.56;10455355;28;20045;-77
2023/05/21 15:22:10;;;;;;;1.85;0.73;;;;;;;30.97;83.81;101488.34;10453254;28;20524;-78
2023/05/21 15:27:12;;;;;;;0.85;0.40;;;;;;;30.03;82.70;101483.16;10453463;28;20041;-77
2023/05/21 15:32:13;;;;;;;1.30;0.93;;;;;;;30.07;83.33;101483.88;10443333;28;20075;-78
2023/05/21 15:37:15;;;;;;;1.67;1.00;;;;;;;30.11;85.24;101472.16;10448660;28;20045;-79
2023/05/21 15:42:17;;;;;;;0.68;0.57;;;;;;;30.53;85.89;101468.38;10447148;28;20053;-78
2023/05/21 15:47:21;;;;;;;1.65;0.93;;;;;;;30.82;84.04;101473.19;10453533;28;20048;-79
2023/05/21 15:52:22;;;;;;;1.05;0.57;;;;;;;29.91;85.81;101470.44;10430292;28;20234;-78
2023/05/21 15:57:24;;;;;;;1.50;1.40;;;;;;;30.19;83.63;101461.19;10441864;28;20083;-78
2023/05/21 16:02:26;;;;;;;1.05;0.70;;;;;;;31.33;85.04;101462.59;10453191;28;20045;-78
2023/05/21 16:07:27;;;;;;;0.93;0.73;;;;;;;29.90;83.75;101463.38;10452668;28;20139;-78
2023/05/21 16:12:29;;;;;;;0.90;0.70;;;;;;;30.38;83.62;101464.66;10453082;28;20045;-77
2023/05/21 16:17:31;;;;;;;4.63;1.48;;;;;;;29.98;86.98;101461.25;10435872;28;20416;-77
2023/05/21 16:22:32;;;;;;;1.63;0.93;;;;;;;30.23;86.43;101458.28;10451938;28;20484;-78
2023/05/21 16:27:35;;;;;;;1.85;1.35;;;;;;;29.82;82.47;101465.56;10452184;28;20115;-78
2023/05/21 16:32:38;;;;;;;5.57;1.38;;;;;;;30.46;85.32;101455.44;10431525;28;20041;-77
2023/05/21 16:37:39;;;;;;;1.00;0.90;;;;;;;30.06;85.85;101460.91;10432344;28;20076;-77
2023/05/21 16:42:42;;;;;;;0.93;0.85;;;;;;;29.05;85.22;101460.06;10455820;28;20056;-79
2023/05/21 16:47:47;;;;;;;0.50;0.45;;;;;;;31.30;82.23;101452.09;10458308;28;20037;-78
2023/05/21 16:52:49;;;;;;;0.50;0.45;;;;;;;30.11;82.79;101460.69;10458283;28;20461;-78
2023/05/21 16:57:50;;;;;;;0.75;0.60;;;;;;;30.32;81.68;101453.44;10459042;28;20119;-79
2023/05/21 17:02:52;;;;;;;0.50;0.50;;;;;;;29.48;85.33;101460.00;10458677;28;20051;-78
2023/05/21 17:07:54;;;;;;;1.20;0.68;;;;;;;30.67;84.85;101458.88;10455991;28;20044;-77
2023/05/21 17:12:56;;;;;;;1.65;0.98;;;;;;;29.82;83.10;101465.56;10438358;28;20139;-77
2023/05/21 17:18:02;;;;;;;1.00;0.82;;;;;;;30.91;84.09;101474.50;10442274;28;20049;-77
2023/05/21 17:23:04;;;;;;;0.82;0.50;;;;;;;30.02;85.35;101484.09;10457653;28;20056;-77
2023/05/21 17:28:05;;;;;;;4.18;1.20;;;;;;;30.12;87.13;101468.56;10456925;28;20054;-77
2023/05/21 17:33:08;;;;;;;0.82;0.73;;;;;;;29.59;85.55;101475.44;10457384;28;20076;-78
2023/05/21 17:38:11;;;;;;;5.07;1.70;;;;;;;29.88;84.64;101465.25;10456295;28;20045;-78
2023/05/21 17:43:12;;;;;;;0.68;0.50;;;;;;;30.37;84.88;101473.56;10456520;28;20045;-78
2023/05/21 17:48:14;;;;;;;0.73;0.65;;;;;;;29.90;85.68;101479.31;10443059;28;20048;-78
2023/05/21 17:53:16;;;;;;;3.42;1.17;;;;;;;29.25;86.87;101487.50;10451554;28;20048;-77
2023/05/21 17:58:18;;;;;;;1.65;1.00;;;;;;;29.30;88.48;101493.50;10453485;28;20046;-78
2023/05/21 18:03:20;;;;;;;1.02;0.88;;;;;;;29.19;87.80;101482.47;10451438;28;20412;-78
2023/05/21 18:08:22;;;;;;;1.58;1.20;;;;;;;28.99;88.84;101485.97;10453716;28;20048;-78
2023/05/21 18:13:24;;;;;;;1.35;1.02;;;;;;;29.73;88.57;101483.63;10452862;28;20496;-78
2023/05/21 18:18:25;;;;;;;1.23;0.70;;;;;;;29.00;90.33;101485.94;10445434;28;20047;-78
2023/05/21 18:23:29;;;;;;;0.68;0.55;;;;;;;29.32;89.73;101482.84;10443581;28;20466;-78
2023/05/21 18:28:32;;;;;;;1.30;1.00;;;;;;;28.38;90.61;101487.53;10451274;28;20404;-78
2023/05/21 18:33:33;;;;;;;0.75;0.50;;;;;;;28.81;89.68;101488.50;10450643;28;20099;-78
2023/05/21 18:38:35;;;;;;;1.00;0.68;;;;;;;29.20;90.54;101479.75;10446571;28;20087;-78
2023/05/21 18:43:37;;;;;;;1.25;0.95;;;;;;;29.24;90.96;101480.47;10440479;28;20047;-78
2023/05/21 18:48:38;;;;;;;0.40;0.40;;;;;;;28.97;90.79;101478.94;10452308;28;20059;-78
2023/05/21 18:53:43;;;;;;;0.50;0.50;;;;;;;28.58;93.54;101466.41;10451370;28;20049;-79
2023/05/21 18:58:46;;;;;;;1.35;0.57;;;;;;;27.84;96.01;101470.13;10441166;28;20053;-78
2023/05/21 19:03:48;;;;;;;1.23;1.13;;;;;;;27.82;95.00;101469.31;10449216;28;20048;-80
2023/05/21 19:08:53;;;;;;;0.55;0.40;;;;;;;27.94;95.98;101460.06;10450725;28;20075;-80
2023/05/21 19:13:55;;;;;;;1.05;0.60;;;;;;;28.24;94.28;101469.56;10450473;28;20045;-80
2023/05/21 19:18:57;;;;;;;1.13;0.63;;;;;;;28.41;95.15;101467.06;10451559;28;20044;-79
2023/05/21 19:23:59;;;;;;;1.48;0.82;;;;;;;27.63;97.20;101479.75;10452810;28;20052;-80
2023/05/21 19:29:01;;;;;;;0.30;0.25;;;;;;;26.91;100.00;101478.72;10450116;28;20045;-80
2023/05/21 19:34:09;;;;;;;1.17;0.60;;;;;;;26.78;100.00;101473.88;10449581;28;20063;-79
2023/05/21 19:39:17;;;;;;;0.95;0.47;;;;;;;26.80;100.00;101486.13;10449828;28;20102;-79
2023/05/21 19:44:19;;;;;;;1.05;0.70;;;;;;;26.97;100.00;101476.75;10447484;28;20055;-79
2023/05/21 19:49:20;;;;;;;2.30;0.82;;;;;;;26.85;100.00;101484.19;10449090;28;20043;-79
2023/05/21 19:54:23;;;;;;;0.20;0.20;;;;;;;27.08;100.00;101479.91;10449063;28;20064;-79
2023/05/21 19:59:25;;;;;;;0.82;0.43;;;;;;;26.70;100.00;101482.00;10448755;28;20041;-79
2023/05/21 20:04:30;;;;;;;0.90;0.65;;;;;;;26.47;100.00;101486.28;10440316;28;20060;-79
2023/05/21 20:09:32;;;;;;;1.02;0.68;;;;;;;26.12;100.00;101477.66;10448765;28;20045;-80
2023/05/21 20:14:34;;;;;;;1.13;0.70;;;;;;;26.03;100.00;101462.06;10448702;28;20041;-79
2023/05/21 20:19:38;;;;;;;1.23;0.52;;;;;;;25.88;100.00;101458.97;10430877;28;20135;-79
2023/05/21 20:24:39;;;;;;;1.10;0.85;;;;;;;25.86;100.00;101466.09;10447628;28;20053;-79
2023/05/21 20:29:41;;;;;;;3.58;1.20;;;;;;;25.68;100.00;101458.69;10447417;28;20045;-79
2023/05/21 20:34:43;;;;;;;1.10;0.73;;;;;;;25.71;100.00;101455.97;10447715;28;20422;-79
2023/05/21 20:40:04;;;;;;;;;;;;;;;25.71;100.00;101448.06;10445794;28;20079;-79
2023/05/21 20:45:06;;;;;;;0.93;0.57;;;;;;;25.56;100.00;101437.03;10448147;28;19935;-79
2023/05/21 20:50:08;;;;;;;1.10;0.80;;;;;;;25.37;100.00;101435.78;10446283;28;20056;-79
2023/05/21 20:55:11;;;;;;;1.55;1.05;;;;;;;25.44;100.00;101422.41;10431703;28;20057;-79
2023/05/21 21:00:14;;;;;;;1.50;0.70;;;;;;;25.70;100.00;101419.94;10430707;28;20140;-79
2023/05/21 21:05:16;;;;;;;1.52;0.95;;;;;;;25.11;100.00;101430.31;10448446;28;20514;-79
2023/05/21 21:10:18;;;;;;;0.80;0.77;;;;;;;25.19;100.00;101427.47;10447677;28;20420;-79
2023/05/21 21:15:20;;;;;;;0.82;0.52;;;;;;;25.35;100.00;101428.75;10438485;28;20416;-79
2023/05/21 21:20:22;;;;;;;1.02;0.77;;;;;;;25.32;100.00;101434.13;10448124;28;20124;-79
2023/05/21 21:25:23;;;;;;;0.68;0.68;;;;;;;25.49;100.00;101456.59;10444182;28;20049;-79
2023/05/21 21:30:25;;;;;;;0.82;0.60;;;;;;;25.60;100.00;101472.97;10446677;28;20052;-79
2023/05/21 21:35:26;;;;;;;1.33;1.15;;;;;;;25.17;100.00;101506.59;10450118;28;20060;-79
2023/05/21 21:40:28;;;;;;;2.83;1.00;;;;;;;25.45;100.00;101512.94;10448598;28;20049;-78
2023/05/21 21:45:30;;;;;;;1.90;1.23;;;;;;;25.41;100.00;101496.34;10453823;28;20059;-79
2023/05/21 21:50:32;;;;;;;2.80;1.77;;;;;;;25.54;100.00;101481.06;10453947;28;20044;-79
2023/05/21 21:55:34;;;;;;;1.80;1.13;;;;;;;25.50;100.00;101479.41;10451751;28;20064;-79
2023/05/21 22:00:35;;;;;;;2.30;1.55;;;;;;;26.78;100.00;101493.22;10454243;28;20049;-79
2023/05/21 22:05:37;;;;;;;0.75;0.75;;;;;;;27.69;100.00;101482.19;10454378;28;20056;-78
2023/05/21 22:10:39;;;;;;;0.40;0.40;;;;;;;27.24;100.00;101490.81;10451101;28;20045;-77
2023/05/21 22:15:41;;;;;;;2.03;1.23;;;;;;;26.66;100.00;101493.59;10448253;28;20148;-78
2023/05/21 22:20:44;;;;;;;1.35;0.85;;;;;;;26.68;100.00;101491.78;10435103;28;20045;-77
2023/05/21 22:25:46;;;;;;;0.57;0.57;;;;;;;25.55;100.00;101490.69;10448001;28;20063;-77
2023/05/21 22:30:48;;;;;;;2.20;1.25;;;;;;;25.52;100.00;101493.41;10450221;28;20041;-79
2023/05/21 22:35:49;;;;;;;0.80;0.52;;;;;;;24.83;100.00;101482.88;10450096;28;20134;-78
2023/05/21 22:40:53;;;;;;;1.48;0.77;;;;;;;25.33;100.00;101487.72;10449861;28;20053;-78
2023/05/21 22:45:55;;;;;;;0.80;0.57;;;;;;;25.70;100.00;101473.56;10444047;28;20085;-77
2023/05/21 22:50:57;;;;;;;0.50;0.50;;;;;;;25.80;100.00;101472.41;10443365;28;20488;-78
2023/05/21 22:55:59;;;;;;;0.52;0.43;;;;;;;24.84;100.00;101468.78;10447942;28;20091;-78
2023/05/21 23:01:01;;;;;;;2.65;1.65;;;;;;;25.48;100.00;101466.25;10450537;28;20055;-77
2023/05/21 23:06:03;;;;;;;0.80;0.38;;;;;;;25.58;100.00;101466.84;10450791;28;20791;-77
2023/05/21 23:11:04;;;;;;;0.85;0.75;;;;;;;23.91;100.00;101478.72;10450774;28;20072;-76